sensor_id;sensor_type;location;lat;lon;timestamp;temperature;humidity
40952;DHT22;26682;51.660;19.338;2023-06-22T00:02:21;20.20;1.00
40952;DHT22;26682;51.660;19.338;2023-06-22T00:05:04;20.20;1.00
40952;DHT22;26682;51.660;19.338;2023-06-22T00:07:47;20.20;1.00
40952;DHT22;26682;51.660;19.338;2023-06-22T00:10:29;20.20;1.00
40952;DHT22;26682;51.660;19.338;2023-06-22T00:13:13;20.20;1.00
40952;DHT22;26682;51.660;19.338;2023-06-22T00:15:56;20.20;1.00
40952;DHT22;26682;51.660;19.338;2023-06-22T00:18:38;20.10;1.00
40952;DHT22;26682;51.660;19.338;2023-06-22T00:21:20;20.00;1.00
40952;DHT22;26682;51.660;19.338;2023-06-22T00:24:03;20.00;2.10
40952;DHT22;26682;51.660;19.338;2023-06-22T00:26:46;20.00;1.00
40952;DHT22;26682;51.660;19.338;2023-06-22T00:29:29;20.00;28.20
40952;DHT22;26682;51.660;19.338;2023-06-22T00:32:11;19.90;59.90
40952;DHT22;26682;51.660;19.338;2023-06-22T00:34:54;19.90;99.90
40952;DHT22;26682;51.660;19.338;2023-06-22T00:37:37;19.80;99.90
40952;DHT22;26682;51.660;19.338;2023-06-22T00:40:20;19.80;99.90
40952;DHT22;26682;51.660;19.338;2023-06-22T00:43:04;19.80;99.90
40952;DHT22;26682;51.660;19.338;2023-06-22T00:45:47;19.80;99.90
40952;DHT22;26682;51.660;19.338;2023-06-22T00:48:32;19.70;99.90
40952;DHT22;26682;51.660;19.338;2023-06-22T00:51:14;19.70;99.90
40952;DHT22;26682;51.660;19.338;2023-06-22T00:53:57;19.60;99.90
40952;DHT22;26682;51.660;19.338;2023-06-22T00:56:41;19.60;99.90
40952;DHT22;26682;51.660;19.338;2023-06-22T00:59:26;19.50;99.90
40952;DHT22;26682;51.660;19.338;2023-06-22T01:02:09;19.50;99.90
40952;DHT22;26682;51.660;19.338;2023-06-22T01:04:51;19.40;99.90
40952;DHT22;26682;51.660;19.338;2023-06-22T01:08:04;19.40;99.90
40952;DHT22;26682;51.660;19.338;2023-06-22T01:10:54;19.40;99.90
40952;DHT22;26682;51.660;19.338;2023-06-22T01:13:41;19.40;99.90
40952;DHT22;26682;51.660;19.338;2023-06-22T01:16:33;19.40;99.90
40952;DHT22;26682;51.660;19.338;2023-06-22T01:19:47;19.40;99.90
40952;DHT22;26682;51.660;19.338;2023-06-22T01:23:05;19.30;99.90
40952;DHT22;26682;51.660;19.338;2023-06-22T01:26:19;19.30;99.90
40952;DHT22;26682;51.660;19.338;2023-06-22T01:29:04;19.30;99.90
40952;DHT22;26682;51.660;19.338;2023-06-22T01:31:50;19.30;99.90
40952;DHT22;26682;51.660;19.338;2023-06-22T01:34:33;19.30;99.90
40952;DHT22;26682;51.660;19.338;2023-06-22T01:37:18;19.20;99.90
40952;DHT22;26682;51.660;19.338;2023-06-22T01:40:02;19.20;99.90
40952;DHT22;26682;51.660;19.338;2023-06-22T01:42:48;19.20;99.90
40952;DHT22;26682;51.660;19.338;2023-06-22T01:45:31;19.10;99.90
40952;DHT22;26682;51.660;19.338;2023-06-22T01:48:13;19.10;99.90
40952;DHT22;26682;51.660;19.338;2023-06-22T01:50:56;19.10;99.90
40952;DHT22;26682;51.660;19.338;2023-06-22T01:53:39;19.00;99.90
40952;DHT22;26682;51.660;19.338;2023-06-22T01:56:21;19.00;99.90
40952;DHT22;26682;51.660;19.338;2023-06-22T01:59:18;18.90;99.90
40952;DHT22;26682;51.660;19.338;2023-06-22T02:02:06;18.90;99.90
40952;DHT22;26682;51.660;19.338;2023-06-22T02:04:58;18.90;99.90
40952;DHT22;26682;51.660;19.338;2023-06-22T02:08:30;18.80;99.90
40952;DHT22;26682;51.660;19.338;2023-06-22T02:10:53;18.80;99.90
40952;DHT22;26682;51.660;19.338;2023-06-22T02:13:37;18.80;99.90
40952;DHT22;26682;51.660;19.338;2023-06-22T02:16:23;18.80;99.90
40952;DHT22;26682;51.660;19.338;2023-06-22T02:19:05;18.70;99.90
40952;DHT22;26682;51.660;19.338;2023-06-22T02:21:48;18.70;99.90
40952;DHT22;26682;51.660;19.338;2023-06-22T02:24:31;18.70;99.90
40952;DHT22;26682;51.660;19.338;2023-06-22T02:27:14;18.70;99.90
40952;DHT22;26682;51.660;19.338;2023-06-22T02:29:57;18.70;99.90
40952;DHT22;26682;51.660;19.338;2023-06-22T02:32:39;18.70;99.90
40952;DHT22;26682;51.660;19.338;2023-06-22T02:35:26;18.70;99.90
40952;DHT22;26682;51.660;19.338;2023-06-22T02:38:08;18.70;99.90
40952;DHT22;26682;51.660;19.338;2023-06-22T02:40:51;18.60;99.90
40952;DHT22;26682;51.660;19.338;2023-06-22T02:43:33;18.60;99.90
40952;DHT22;26682;51.660;19.338;2023-06-22T02:46:15;18.60;99.90
40952;DHT22;26682;51.660;19.338;2023-06-22T02:48:58;18.60;99.90
40952;DHT22;26682;51.660;19.338;2023-06-22T02:51:45;18.60;99.90
40952;DHT22;26682;51.660;19.338;2023-06-22T02:54:30;18.60;99.90
40952;DHT22;26682;51.660;19.338;2023-06-22T02:57:12;18.60;99.90
40952;DHT22;26682;51.660;19.338;2023-06-22T02:59:57;18.60;99.90
40952;DHT22;26682;51.660;19.338;2023-06-22T03:02:39;18.60;99.90
40952;DHT22;26682;51.660;19.338;2023-06-22T03:05:22;18.70;99.90
40952;DHT22;26682;51.660;19.338;2023-06-22T03:08:05;18.70;99.90
40952;DHT22;26682;51.660;19.338;2023-06-22T03:10:49;18.80;99.90
40952;DHT22;26682;51.660;19.338;2023-06-22T03:13:32;18.80;99.90
40952;DHT22;26682;51.660;19.338;2023-06-22T03:16:14;18.90;99.90
40952;DHT22;26682;51.660;19.338;2023-06-22T03:18:57;18.90;99.90
40952;DHT22;26682;51.660;19.338;2023-06-22T03:21:40;19.00;99.90
40952;DHT22;26682;51.660;19.338;2023-06-22T03:24:22;19.00;99.90
40952;DHT22;26682;51.660;19.338;2023-06-22T03:27:05;19.00;99.90
40952;DHT22;26682;51.660;19.338;2023-06-22T03:29:49;19.00;99.90
40952;DHT22;26682;51.660;19.338;2023-06-22T03:32:31;19.10;99.90
40952;DHT22;26682;51.660;19.338;2023-06-22T03:35:14;19.10;99.90
40952;DHT22;26682;51.660;19.338;2023-06-22T03:37:56;19.20;99.90
40952;DHT22;26682;51.660;19.338;2023-06-22T03:40:39;19.20;99.90
40952;DHT22;26682;51.660;19.338;2023-06-22T03:43:21;19.30;99.90
40952;DHT22;26682;51.660;19.338;2023-06-22T03:46:03;19.40;99.90
40952;DHT22;26682;51.660;19.338;2023-06-22T03:48:46;19.50;99.90
40952;DHT22;26682;51.660;19.338;2023-06-22T03:51:29;19.60;99.90
40952;DHT22;26682;51.660;19.338;2023-06-22T03:54:11;19.60;99.90
40952;DHT22;26682;51.660;19.338;2023-06-22T03:56:53;19.60;99.90
40952;DHT22;26682;51.660;19.338;2023-06-22T03:59:36;19.70;99.90
40952;DHT22;26682;51.660;19.338;2023-06-22T04:02:19;19.80;99.90
40952;DHT22;26682;51.660;19.338;2023-06-22T04:05:01;19.80;99.90
40952;DHT22;26682;51.660;19.338;2023-06-22T04:07:46;19.80;99.90
40952;DHT22;26682;51.660;19.338;2023-06-22T04:10:28;20.00;99.90
40952;DHT22;26682;51.660;19.338;2023-06-22T04:13:11;20.20;99.90
40952;DHT22;26682;51.660;19.338;2023-06-22T04:15:54;20.40;99.90
40952;DHT22;26682;51.660;19.338;2023-06-22T04:18:37;20.50;99.90
40952;DHT22;26682;51.660;19.338;2023-06-22T04:21:20;20.50;99.90
40952;DHT22;26682;51.660;19.338;2023-06-22T04:24:02;20.70;99.90
40952;DHT22;26682;51.660;19.338;2023-06-22T04:26:45;20.80;99.90
40952;DHT22;26682;51.660;19.338;2023-06-22T04:29:30;20.90;99.90
40952;DHT22;26682;51.660;19.338;2023-06-22T04:32:12;21.10;99.90
40952;DHT22;26682;51.660;19.338;2023-06-22T04:34:56;21.10;1.00
40952;DHT22;26682;51.660;19.338;2023-06-22T04:37:38;21.50;99.90
40952;DHT22;26682;51.660;19.338;2023-06-22T04:40:23;21.80;1.00
40952;DHT22;26682;51.660;19.338;2023-06-22T04:43:05;22.00;1.00
40952;DHT22;26682;51.660;19.338;2023-06-22T04:45:48;22.20;99.90
40952;DHT22;26682;51.660;19.338;2023-06-22T04:48:34;22.40;1.00
40952;DHT22;26682;51.660;19.338;2023-06-22T04:51:17;22.20;99.90
40952;DHT22;26682;51.660;19.338;2023-06-22T04:54:04;22.40;99.90
40952;DHT22;26682;51.660;19.338;2023-06-22T04:56:48;22.60;99.90
40952;DHT22;26682;51.660;19.338;2023-06-22T04:59:35;22.60;99.90
40952;DHT22;26682;51.660;19.338;2023-06-22T05:02:18;22.60;1.00
40952;DHT22;26682;51.660;19.338;2023-06-22T05:05:02;22.80;99.90
40952;DHT22;26682;51.660;19.338;2023-06-22T05:07:51;23.00;99.90
40952;DHT22;26682;51.660;19.338;2023-06-22T05:10:42;23.00;1.00
40952;DHT22;26682;51.660;19.338;2023-06-22T05:13:45;23.00;99.90
40952;DHT22;26682;51.660;19.338;2023-06-22T05:16:27;23.50;99.90
40952;DHT22;26682;51.660;19.338;2023-06-22T05:19:10;23.70;1.00
40952;DHT22;26682;51.660;19.338;2023-06-22T05:21:53;23.50;1.00
40952;DHT22;26682;51.660;19.338;2023-06-22T05:24:36;24.00;99.90
40952;DHT22;26682;51.660;19.338;2023-06-22T05:27:18;24.20;99.90
40952;DHT22;26682;51.660;19.338;2023-06-22T05:30:01;24.30;99.90
40952;DHT22;26682;51.660;19.338;2023-06-22T05:32:44;24.30;99.90
40952;DHT22;26682;51.660;19.338;2023-06-22T05:35:27;24.00;99.90
40952;DHT22;26682;51.660;19.338;2023-06-22T05:38:09;24.40;62.60
40952;DHT22;26682;51.660;19.338;2023-06-22T05:40:52;24.50;1.00
40952;DHT22;26682;51.660;19.338;2023-06-22T05:43:34;24.60;1.00
40952;DHT22;26682;51.660;19.338;2023-06-22T05:46:17;24.50;1.00
40952;DHT22;26682;51.660;19.338;2023-06-22T05:48:59;24.60;99.90
40952;DHT22;26682;51.660;19.338;2023-06-22T05:51:42;24.70;99.90
40952;DHT22;26682;51.660;19.338;2023-06-22T05:54:25;25.30;99.90
40952;DHT22;26682;51.660;19.338;2023-06-22T05:57:07;25.50;99.90
40952;DHT22;26682;51.660;19.338;2023-06-22T05:59:50;25.40;99.90
40952;DHT22;26682;51.660;19.338;2023-06-22T06:02:33;25.30;99.90
40952;DHT22;26682;51.660;19.338;2023-06-22T06:05:16;25.40;96.70
40952;DHT22;26682;51.660;19.338;2023-06-22T06:08:00;25.20;21.50
40952;DHT22;26682;51.660;19.338;2023-06-22T06:10:43;25.10;1.00
40952;DHT22;26682;51.660;19.338;2023-06-22T06:13:25;24.90;1.00
40952;DHT22;26682;51.660;19.338;2023-06-22T06:16:07;25.10;1.00
40952;DHT22;26682;51.660;19.338;2023-06-22T06:18:50;25.00;1.00
40952;DHT22;26682;51.660;19.338;2023-06-22T06:21:33;25.50;35.30
40952;DHT22;26682;51.660;19.338;2023-06-22T06:24:15;25.40;1.00
40952;DHT22;26682;51.660;19.338;2023-06-22T06:26:58;25.20;1.00
40952;DHT22;26682;51.660;19.338;2023-06-22T06:29:40;25.10;1.00
40952;DHT22;26682;51.660;19.338;2023-06-22T06:32:23;25.20;1.00
40952;DHT22;26682;51.660;19.338;2023-06-22T06:35:07;24.80;1.00
40952;DHT22;26682;51.660;19.338;2023-06-22T06:37:50;24.90;1.00
40952;DHT22;26682;51.660;19.338;2023-06-22T06:40:32;25.00;1.00
40952;DHT22;26682;51.660;19.338;2023-06-22T06:43:15;25.30;99.90
40952;DHT22;26682;51.660;19.338;2023-06-22T06:45:58;25.40;99.90
40952;DHT22;26682;51.660;19.338;2023-06-22T06:48:40;25.40;99.90
40952;DHT22;26682;51.660;19.338;2023-06-22T06:51:23;25.40;97.50
40952;DHT22;26682;51.660;19.338;2023-06-22T06:54:05;25.70;92.40
40952;DHT22;26682;51.660;19.338;2023-06-22T06:56:48;25.50;43.00
40952;DHT22;26682;51.660;19.338;2023-06-22T06:59:30;25.70;35.70
40952;DHT22;26682;51.660;19.338;2023-06-22T07:02:13;25.40;44.70
40952;DHT22;26682;51.660;19.338;2023-06-22T07:04:56;25.10;19.60
40952;DHT22;26682;51.660;19.338;2023-06-22T07:07:39;25.60;31.90
40952;DHT22;26682;51.660;19.338;2023-06-22T07:10:21;25.40;1.90
40952;DHT22;26682;51.660;19.338;2023-06-22T07:13:04;25.70;10.20
40952;DHT22;26682;51.660;19.338;2023-06-22T07:15:46;25.80;1.00
40952;DHT22;26682;51.660;19.338;2023-06-22T07:18:29;26.10;1.00
40952;DHT22;26682;51.660;19.338;2023-06-22T07:21:12;26.40;1.00
40952;DHT22;26682;51.660;19.338;2023-06-22T07:23:55;26.60;1.00
40952;DHT22;26682;51.660;19.338;2023-06-22T07:26:38;26.40;1.00
40952;DHT22;26682;51.660;19.338;2023-06-22T07:29:21;26.20;1.00
40952;DHT22;26682;51.660;19.338;2023-06-22T07:32:03;26.00;1.00
40952;DHT22;26682;51.660;19.338;2023-06-22T07:34:47;25.90;1.00
40952;DHT22;26682;51.660;19.338;2023-06-22T07:37:29;25.80;1.00
40952;DHT22;26682;51.660;19.338;2023-06-22T07:40:13;25.80;1.00
40952;DHT22;26682;51.660;19.338;2023-06-22T07:42:55;26.30;1.00
40952;DHT22;26682;51.660;19.338;2023-06-22T07:45:38;26.40;1.00
40952;DHT22;26682;51.660;19.338;2023-06-22T07:48:22;26.40;1.00
40952;DHT22;26682;51.660;19.338;2023-06-22T07:51:05;26.60;1.00
40952;DHT22;26682;51.660;19.338;2023-06-22T07:53:48;26.50;1.00
40952;DHT22;26682;51.660;19.338;2023-06-22T07:56:31;26.60;99.90
40952;DHT22;26682;51.660;19.338;2023-06-22T07:59:14;26.00;99.90
40952;DHT22;26682;51.660;19.338;2023-06-22T08:01:56;25.80;99.90
40952;DHT22;26682;51.660;19.338;2023-06-22T08:04:39;25.70;99.90
40952;DHT22;26682;51.660;19.338;2023-06-22T08:07:23;25.70;99.90
40952;DHT22;26682;51.660;19.338;2023-06-22T08:10:09;26.10;99.90
40952;DHT22;26682;51.660;19.338;2023-06-22T08:12:52;26.40;99.90
40952;DHT22;26682;51.660;19.338;2023-06-22T08:15:34;26.10;99.90
40952;DHT22;26682;51.660;19.338;2023-06-22T08:18:17;26.30;99.90
40952;DHT22;26682;51.660;19.338;2023-06-22T08:20:59;26.30;99.90
40952;DHT22;26682;51.660;19.338;2023-06-22T08:23:44;26.50;99.90
40952;DHT22;26682;51.660;19.338;2023-06-22T08:26:26;26.90;99.90
40952;DHT22;26682;51.660;19.338;2023-06-22T08:29:09;27.20;99.90
40952;DHT22;26682;51.660;19.338;2023-06-22T08:31:51;27.20;99.90
40952;DHT22;26682;51.660;19.338;2023-06-22T08:34:34;27.10;99.90
40952;DHT22;26682;51.660;19.338;2023-06-22T08:37:16;27.20;99.90
40952;DHT22;26682;51.660;19.338;2023-06-22T08:40:00;26.90;99.90
40952;DHT22;26682;51.660;19.338;2023-06-22T08:42:51;27.30;99.90
40952;DHT22;26682;51.660;19.338;2023-06-22T08:45:34;27.10;99.90
40952;DHT22;26682;51.660;19.338;2023-06-22T08:48:17;27.30;99.90
40952;DHT22;26682;51.660;19.338;2023-06-22T08:50:59;27.10;99.90
40952;DHT22;26682;51.660;19.338;2023-06-22T08:53:41;27.20;99.90
40952;DHT22;26682;51.660;19.338;2023-06-22T08:56:25;27.10;99.90
40952;DHT22;26682;51.660;19.338;2023-06-22T08:59:07;27.40;99.90
40952;DHT22;26682;51.660;19.338;2023-06-22T09:01:50;27.20;99.90
40952;DHT22;26682;51.660;19.338;2023-06-22T09:04:32;27.20;99.90
40952;DHT22;26682;51.660;19.338;2023-06-22T09:07:17;27.10;99.90
40952;DHT22;26682;51.660;19.338;2023-06-22T09:10:05;27.20;99.90
40952;DHT22;26682;51.660;19.338;2023-06-22T09:12:48;27.20;99.90
40952;DHT22;26682;51.660;19.338;2023-06-22T09:15:30;27.10;99.90
40952;DHT22;26682;51.660;19.338;2023-06-22T09:18:14;26.90;99.90
40952;DHT22;26682;51.660;19.338;2023-06-22T09:20:56;27.10;99.90
40952;DHT22;26682;51.660;19.338;2023-06-22T09:23:39;27.30;99.90
40952;DHT22;26682;51.660;19.338;2023-06-22T09:26:21;26.90;99.90
40952;DHT22;26682;51.660;19.338;2023-06-22T09:29:06;27.00;99.90
40952;DHT22;26682;51.660;19.338;2023-06-22T09:31:48;27.10;99.90
40952;DHT22;26682;51.660;19.338;2023-06-22T09:34:31;27.00;99.90
40952;DHT22;26682;51.660;19.338;2023-06-22T09:37:13;27.10;99.90
40952;DHT22;26682;51.660;19.338;2023-06-22T09:39:56;27.20;99.90
40952;DHT22;26682;51.660;19.338;2023-06-22T09:42:39;27.30;99.90
40952;DHT22;26682;51.660;19.338;2023-06-22T09:45:22;27.50;99.90
40952;DHT22;26682;51.660;19.338;2023-06-22T09:48:04;27.60;99.90
40952;DHT22;26682;51.660;19.338;2023-06-22T09:50:47;27.70;99.90
40952;DHT22;26682;51.660;19.338;2023-06-22T09:53:29;27.80;99.90
40952;DHT22;26682;51.660;19.338;2023-06-22T09:56:12;28.00;99.90
40952;DHT22;26682;51.660;19.338;2023-06-22T09:58:57;28.00;99.90
40952;DHT22;26682;51.660;19.338;2023-06-22T10:01:59;28.10;99.90
40952;DHT22;26682;51.660;19.338;2023-06-22T10:04:41;28.00;99.90
40952;DHT22;26682;51.660;19.338;2023-06-22T10:07:24;28.10;99.90
40952;DHT22;26682;51.660;19.338;2023-06-22T10:10:08;28.20;99.90
40952;DHT22;26682;51.660;19.338;2023-06-22T10:12:57;28.10;99.90
40952;DHT22;26682;51.660;19.338;2023-06-22T10:15:44;28.00;99.90
40952;DHT22;26682;51.660;19.338;2023-06-22T10:18:32;28.20;99.90
40952;DHT22;26682;51.660;19.338;2023-06-22T10:21:14;28.20;99.90
40952;DHT22;26682;51.660;19.338;2023-06-22T10:23:58;28.40;99.90
40952;DHT22;26682;51.660;19.338;2023-06-22T10:26:41;28.30;99.80
40952;DHT22;26682;51.660;19.338;2023-06-22T10:29:24;28.20;97.80
40952;DHT22;26682;51.660;19.338;2023-06-22T10:32:07;28.10;96.60
40952;DHT22;26682;51.660;19.338;2023-06-22T10:34:50;27.90;94.40
40952;DHT22;26682;51.660;19.338;2023-06-22T10:37:32;27.90;94.80
40952;DHT22;26682;51.660;19.338;2023-06-22T10:40:15;27.90;95.50
40952;DHT22;26682;51.660;19.338;2023-06-22T10:42:59;28.00;93.30
40952;DHT22;26682;51.660;19.338;2023-06-22T10:45:41;27.60;92.70
40952;DHT22;26682;51.660;19.338;2023-06-22T10:48:24;27.70;92.90
40952;DHT22;26682;51.660;19.338;2023-06-22T10:51:06;27.80;92.90
40952;DHT22;26682;51.660;19.338;2023-06-22T10:53:49;27.90;91.50
40952;DHT22;26682;51.660;19.338;2023-06-22T10:56:33;28.20;93.70
40952;DHT22;26682;51.660;19.338;2023-06-22T10:59:16;28.10;93.40
40952;DHT22;26682;51.660;19.338;2023-06-22T11:01:59;27.90;91.40
40952;DHT22;26682;51.660;19.338;2023-06-22T11:04:43;27.70;90.50
40952;DHT22;26682;51.660;19.338;2023-06-22T11:07:25;27.70;91.40
40952;DHT22;26682;51.660;19.338;2023-06-22T11:10:10;28.20;92.00
40952;DHT22;26682;51.660;19.338;2023-06-22T11:12:53;28.40;90.30
40952;DHT22;26682;51.660;19.338;2023-06-22T11:15:36;28.70;90.00
40952;DHT22;26682;51.660;19.338;2023-06-22T11:18:19;28.80;89.50
40952;DHT22;26682;51.660;19.338;2023-06-22T11:21:02;28.60;78.80
40952;DHT22;26682;51.660;19.338;2023-06-22T11:23:45;28.30;78.10
40952;DHT22;26682;51.660;19.338;2023-06-22T11:26:28;28.30;81.80
40952;DHT22;26682;51.660;19.338;2023-06-22T11:29:10;28.20;77.30
40952;DHT22;26682;51.660;19.338;2023-06-22T11:32:06;28.20;77.10
40952;DHT22;26682;51.660;19.338;2023-06-22T11:34:49;28.10;74.20
40952;DHT22;26682;51.660;19.338;2023-06-22T11:37:32;28.00;73.40
40952;DHT22;26682;51.660;19.338;2023-06-22T11:40:15;28.10;73.30
40952;DHT22;26682;51.660;19.338;2023-06-22T11:42:59;28.20;73.60
40952;DHT22;26682;51.660;19.338;2023-06-22T11:45:42;28.30;67.30
40952;DHT22;26682;51.660;19.338;2023-06-22T11:48:25;28.50;66.50
40952;DHT22;26682;51.660;19.338;2023-06-22T11:51:07;28.60;67.30
40952;DHT22;26682;51.660;19.338;2023-06-22T11:53:50;28.60;66.50
40952;DHT22;26682;51.660;19.338;2023-06-22T11:56:33;28.50;63.80
40952;DHT22;26682;51.660;19.338;2023-06-22T11:59:15;28.30;63.50
40952;DHT22;26682;51.660;19.338;2023-06-22T12:01:58;28.10;60.70
40952;DHT22;26682;51.660;19.338;2023-06-22T12:04:40;28.10;62.90
40952;DHT22;26682;51.660;19.338;2023-06-22T12:07:24;28.50;63.60
40952;DHT22;26682;51.660;19.338;2023-06-22T12:10:06;28.60;63.50
40952;DHT22;26682;51.660;19.338;2023-06-22T12:12:49;28.50;62.00
40952;DHT22;26682;51.660;19.338;2023-06-22T12:15:31;28.50;64.50
40952;DHT22;26682;51.660;19.338;2023-06-22T12:18:14;28.40;62.40
40952;DHT22;26682;51.660;19.338;2023-06-22T12:20:57;28.60;63.80
40952;DHT22;26682;51.660;19.338;2023-06-22T12:23:40;28.80;60.50
40952;DHT22;26682;51.660;19.338;2023-06-22T12:26:22;28.60;58.20
40952;DHT22;26682;51.660;19.338;2023-06-22T12:29:05;28.20;53.00
40952;DHT22;26682;51.660;19.338;2023-06-22T12:31:47;28.00;57.10
40952;DHT22;26682;51.660;19.338;2023-06-22T12:34:30;28.20;59.50
40952;DHT22;26682;51.660;19.338;2023-06-22T12:37:13;28.40;59.70
40952;DHT22;26682;51.660;19.338;2023-06-22T12:39:55;28.30;58.10
40952;DHT22;26682;51.660;19.338;2023-06-22T12:42:38;28.30;57.30
40952;DHT22;26682;51.660;19.338;2023-06-22T12:45:20;28.30;56.60
40952;DHT22;26682;51.660;19.338;2023-06-22T12:48:04;28.20;55.70
40952;DHT22;26682;51.660;19.338;2023-06-22T12:50:47;28.20;57.10
40952;DHT22;26682;51.660;19.338;2023-06-22T12:53:30;28.30;56.10
40952;DHT22;26682;51.660;19.338;2023-06-22T12:56:12;28.50;57.20
40952;DHT22;26682;51.660;19.338;2023-06-22T12:58:55;29.00;64.30
40952;DHT22;26682;51.660;19.338;2023-06-22T13:01:37;28.80;48.10
40952;DHT22;26682;51.660;19.338;2023-06-22T13:04:20;28.80;45.90
40952;DHT22;26682;51.660;19.338;2023-06-22T13:07:03;28.80;46.60
40952;DHT22;26682;51.660;19.338;2023-06-22T13:10:02;28.90;49.00
40952;DHT22;26682;51.660;19.338;2023-06-22T13:12:44;28.90;47.20
40952;DHT22;26682;51.660;19.338;2023-06-22T13:15:28;29.20;48.00
40952;DHT22;26682;51.660;19.338;2023-06-22T13:18:11;29.10;41.70
40952;DHT22;26682;51.660;19.338;2023-06-22T13:20:54;29.10;40.30
40952;DHT22;26682;51.660;19.338;2023-06-22T13:23:37;29.20;39.80
40952;DHT22;26682;51.660;19.338;2023-06-22T13:26:22;29.20;38.30
40952;DHT22;26682;51.660;19.338;2023-06-22T13:29:04;29.10;37.20
40952;DHT22;26682;51.660;19.338;2023-06-22T13:31:47;29.10;37.90
40952;DHT22;26682;51.660;19.338;2023-06-22T13:34:29;29.20;38.00
40952;DHT22;26682;51.660;19.338;2023-06-22T13:37:12;29.00;36.90
40952;DHT22;26682;51.660;19.338;2023-06-22T13:39:55;29.10;36.50
40952;DHT22;26682;51.660;19.338;2023-06-22T13:42:38;28.90;33.30
40952;DHT22;26682;51.660;19.338;2023-06-22T13:45:21;28.80;32.60
40952;DHT22;26682;51.660;19.338;2023-06-22T13:48:03;28.70;31.70
40952;DHT22;26682;51.660;19.338;2023-06-22T13:50:46;28.70;42.50
40952;DHT22;26682;51.660;19.338;2023-06-22T13:53:29;28.60;31.60
40952;DHT22;26682;51.660;19.338;2023-06-22T13:56:12;28.50;31.80
40952;DHT22;26682;51.660;19.338;2023-06-22T13:58:54;28.60;33.30
40952;DHT22;26682;51.660;19.338;2023-06-22T14:01:37;28.60;32.40
40952;DHT22;26682;51.660;19.338;2023-06-22T14:04:23;28.60;31.40
40952;DHT22;26682;51.660;19.338;2023-06-22T14:07:06;28.90;33.00
40952;DHT22;26682;51.660;19.338;2023-06-22T14:09:49;28.90;31.30
40952;DHT22;26682;51.660;19.338;2023-06-22T14:12:32;28.70;30.00
40952;DHT22;26682;51.660;19.338;2023-06-22T14:15:14;28.60;28.60
40952;DHT22;26682;51.660;19.338;2023-06-22T14:17:57;28.60;28.30
40952;DHT22;26682;51.660;19.338;2023-06-22T14:20:40;28.60;28.90
40952;DHT22;26682;51.660;19.338;2023-06-22T14:23:23;28.60;29.00
40952;DHT22;26682;51.660;19.338;2023-06-22T14:26:05;28.80;28.10
40952;DHT22;26682;51.660;19.338;2023-06-22T14:28:48;28.80;28.50
40952;DHT22;26682;51.660;19.338;2023-06-22T14:31:32;29.00;30.20
40952;DHT22;26682;51.660;19.338;2023-06-22T14:34:15;29.10;31.00
40952;DHT22;26682;51.660;19.338;2023-06-22T14:36:58;29.00;30.10
40952;DHT22;26682;51.660;19.338;2023-06-22T14:39:41;29.10;31.70
40952;DHT22;26682;51.660;19.338;2023-06-22T14:42:23;29.10;32.40
40952;DHT22;26682;51.660;19.338;2023-06-22T14:45:06;29.10;32.10
40952;DHT22;26682;51.660;19.338;2023-06-22T14:47:49;28.90;30.00
40952;DHT22;26682;51.660;19.338;2023-06-22T14:50:32;28.80;29.90
40952;DHT22;26682;51.660;19.338;2023-06-22T14:53:14;28.60;29.70
40952;DHT22;26682;51.660;19.338;2023-06-22T14:55:57;28.60;29.00
40952;DHT22;26682;51.660;19.338;2023-06-22T14:58:44;28.60;27.70
40952;DHT22;26682;51.660;19.338;2023-06-22T15:01:30;28.50;28.20
40952;DHT22;26682;51.660;19.338;2023-06-22T15:04:12;28.40;26.10
40952;DHT22;26682;51.660;19.338;2023-06-22T15:06:55;28.20;27.90
40952;DHT22;26682;51.660;19.338;2023-06-22T15:09:38;28.30;27.90
40952;DHT22;26682;51.660;19.338;2023-06-22T15:12:23;28.60;30.30
40952;DHT22;26682;51.660;19.338;2023-06-22T15:15:06;28.80;30.40
40952;DHT22;26682;51.660;19.338;2023-06-22T15:17:49;28.90;31.40
40952;DHT22;26682;51.660;19.338;2023-06-22T15:20:31;28.60;27.70
40952;DHT22;26682;51.660;19.338;2023-06-22T15:23:15;28.40;27.90
40952;DHT22;26682;51.660;19.338;2023-06-22T15:25:58;28.40;28.10
40952;DHT22;26682;51.660;19.338;2023-06-22T15:28:42;28.40;28.30
40952;DHT22;26682;51.660;19.338;2023-06-22T15:31:26;28.40;26.10
40952;DHT22;26682;51.660;19.338;2023-06-22T15:34:09;28.20;26.80
40952;DHT22;26682;51.660;19.338;2023-06-22T15:36:51;28.30;26.70
40952;DHT22;26682;51.660;19.338;2023-06-22T15:39:34;28.30;26.70
40952;DHT22;26682;51.660;19.338;2023-06-22T15:42:17;28.40;24.50
40952;DHT22;26682;51.660;19.338;2023-06-22T15:45:00;28.20;25.10
40952;DHT22;26682;51.660;19.338;2023-06-22T15:47:42;28.30;26.90
40952;DHT22;26682;51.660;19.338;2023-06-22T15:50:24;28.30;28.30
40952;DHT22;26682;51.660;19.338;2023-06-22T15:53:07;28.40;27.50
40952;DHT22;26682;51.660;19.338;2023-06-22T15:55:49;28.30;58.80
40952;DHT22;26682;51.660;19.338;2023-06-22T15:58:32;28.30;28.60
40952;DHT22;26682;51.660;19.338;2023-06-22T16:01:15;28.30;29.20
40952;DHT22;26682;51.660;19.338;2023-06-22T16:03:57;28.40;30.90
40952;DHT22;26682;51.660;19.338;2023-06-22T16:06:40;28.30;31.00
40952;DHT22;26682;51.660;19.338;2023-06-22T16:09:22;28.30;26.90
40952;DHT22;26682;51.660;19.338;2023-06-22T16:12:05;28.20;26.60
40952;DHT22;26682;51.660;19.338;2023-06-22T16:14:47;28.10;41.80
40952;DHT22;26682;51.660;19.338;2023-06-22T16:17:30;28.10;24.10
40952;DHT22;26682;51.660;19.338;2023-06-22T16:20:13;28.10;23.90
40952;DHT22;26682;51.660;19.338;2023-06-22T16:22:59;27.90;25.00
40952;DHT22;26682;51.660;19.338;2023-06-22T16:25:43;27.90;24.50
40952;DHT22;26682;51.660;19.338;2023-06-22T16:28:25;27.90;23.90
40952;DHT22;26682;51.660;19.338;2023-06-22T16:31:08;27.90;25.10
40952;DHT22;26682;51.660;19.338;2023-06-22T16:33:50;27.90;32.90
40952;DHT22;26682;51.660;19.338;2023-06-22T16:36:32;27.90;21.50
40952;DHT22;26682;51.660;19.338;2023-06-22T16:39:15;27.80;18.40
40952;DHT22;26682;51.660;19.338;2023-06-22T16:41:57;27.80;27.70
40952;DHT22;26682;51.660;19.338;2023-06-22T16:44:40;27.70;18.50
40952;DHT22;26682;51.660;19.338;2023-06-22T16:47:22;27.80;18.20
40952;DHT22;26682;51.660;19.338;2023-06-22T16:50:05;27.70;16.80
40952;DHT22;26682;51.660;19.338;2023-06-22T16:52:48;27.50;15.30
40952;DHT22;26682;51.660;19.338;2023-06-22T16:55:31;27.40;16.00
40952;DHT22;26682;51.660;19.338;2023-06-22T16:58:14;27.40;16.50
40952;DHT22;26682;51.660;19.338;2023-06-22T17:00:59;27.40;16.20